Skip Navigation Links
NOAA logo - Click to go to the NOAA homepage
NOAA's National Weather Service
Alaska Aviation Weather Unit
  NWS logo - Click to go to the NWS homepage
Left Navbar Graphic     15 AKDT = 23 GMT

   
NOAA is celebrating 200 years of science, service, and stewardship. Visit the NOAA 200th celebration Web site to learn more.
USA.gov is the U.S. Government's official Web portal to all Federal, state and local government Web resources and services.
Facebook
NWS on Facebook

Important Change Regarding the AAWU Web Presence

 

Over the last several months, the AAWU has been working to navigate its webpages to a nationally supported server. Security, as well as other needs, have necessitated the change.  We have been given an extension for the site changeover while we diligently work at addressing feedback received. As of July 14, 2017, aawu.arh.noaa.gov will be discontinued. The new AAWU web address is weather.gov/aawu. It is now live and will run in-parallel with the old site until it is discontinued on July 14, 2017. Please continue to send any feedback or questions regarding the new webpages to nws.ar.aawu.webauthors@noaa.gov.  Thank you for your patience during this time of transition.
AAWU Home :: Display TAF Add Bookmark
PADK 191704Z AUTO 20014KT 10SM -RA SCT013 OVC023 07/04 A2938=

PADK 191725Z AUTO 21020G26KT 9SM SCT023 OVC050 07/04 A2938=

METAR PADK 191756Z AUTO 21014G22KT 9SM BKN035 OVC055 06/03 A2936=

METAR PADK 191856Z AUTO 22017G22KT 8SM FEW027 SCT034 BKN049 07/03
     A2934=

METAR PADK 191956Z AUTO 21018G24KT 9SM FEW027 BKN035 BKN070 08/04
     A2933=

METAR PADK 192156Z AUTO 20022G30KT 10SM FEW029 BKN040 09/04 A2926=

METAR PADK 192256Z AUTO 21019KT 6SM -RA SCT027 BKN036 OVC045 08/06
     A2923=


NOAA's National Weather Service
Alaska Aviation Weather Unit
6930 Sand Lake Road
Anchorage, AK 99502-1845
Disclaimer
Credits
Glossary
Privacy Policy
About Us
Career Opportunities
Contact AAWU Internet Services Site last modified: April, 17th 2012